Flight Track Log - Related Links

Times and Time Zones

All times are in EDT time to prevent confusion due to time zone crossing. See the N448TT flight status page for this flight to view local times or setup timezone preferences in your user account.

Time Position Orientation Groundspeed Altitude Reporting Facility
EDT Latitude Longitude Course Direction KTS MPH feet Rate Location/Type
Fri 11:23:08 AM 37.1228 -107.6622 137° Southeast 134 154 8,700  Level Denver Center
Fri 11:24:10 AM 37.0947 -107.6294 137° Southeast 134 154 9,400 677 Climbing Denver Center
Fri 11:25:12 AM 37.0981 -107.5814 85° East 143 165 10,100 677 Climbing Denver Center
Fri 11:26:14 AM 37.0900 -107.5322 102° East 141 162 10,800 677 Climbing Denver Center
Fri 11:27:16 AM 37.0706 -107.4722 112° Southeast 148 170 11,500 672 Climbing Denver Center
Fri 11:28:19 AM 37.0542 -107.4175 111° Southeast 162 186 12,200 672 Climbing Denver Center
Fri 11:29:21 AM 37.0381 -107.3633 110° East 163 188 12,900 339 Climbing Denver Center
Fri 11:30:23 AM 37.0219 -107.3061 109° East 168 193 12,900  Level Denver Center
Fri 11:31:25 AM 36.9994 -107.2378 112° Southeast 180 207 12,900  Level Denver Center
Fri 11:32:27 AM 36.9814 -107.1792 111° Southeast 183 211 12,900  Level Denver Center
Fri 11:33:29 AM 36.9606 -107.1100 111° Southeast 185 213 12,900  Level Denver Center
Fri 11:34:31 AM 36.9428 -107.0508 111° Southeast 186 214 12,900  Level Denver Center
Fri 11:35:33 AM 36.9214 -106.9828 111° Southeast 186 214 12,900  Level Denver Center
Fri 11:36:35 AM 36.9039 -106.9236 110° East 186 214 12,900  Level Denver Center
Fri 11:37:37 AM 36.8828 -106.8553 111° Southeast 186 214 12,900  Level Denver Center
Fri 11:38:39 AM 36.8644 -106.7964 111° Southeast 187 215 12,900  Level Denver Center
Fri 11:39:41 AM 36.8458 -106.7381 112° Southeast 187 215 12,900  Level Denver Center
Fri 11:40:44 AM 36.8250 -106.6697 111° Southeast 187 215 12,900  Level Denver Center
Fri 11:41:46 AM 36.8408 -106.6164 70° East 182 209 12,900  Level Denver Center
Fri 11:42:48 AM 36.8778 -106.5622 50° Northeast 182 209 12,900  Level Denver Center
Fri 11:43:50 AM 36.9089 -106.5144 51° Northeast 182 209 12,900  Level Denver Center
Fri 11:44:52 AM 36.9439 -106.4592 52° Northeast 182 209 12,900  Level Denver Center
Fri 11:45:54 AM 36.9725 -106.4108 53° Northeast 182 209 12,900  Level Denver Center
Fri 11:46:56 AM 37.0078 -106.3564 51° Northeast 182 209 12,900 97 Level Denver Center
Fri 11:47:58 AM 37.0375 -106.3111 51° Northeast 181 208 13,100 290 Climbing Denver Center
Fri 11:49:00 AM 37.0706 -106.2619 50° Northeast 171 197 13,500 387 Climbing Denver Center
Fri 11:50:02 AM 37.0961 -106.2192 53° Northeast 166 191 13,900 242 Climbing Denver Center
Fri 11:51:04 AM 37.1281 -106.1653 53° Northeast 167 192 14,000 240 Climbing Denver Center
Fri 11:52:07 AM 37.1578 -106.1222 49° Northeast 170 196 14,400 480 Climbing Denver Center
Fri 11:53:09 AM 37.1881 -106.0706 54° Northeast 169 194 15,000 242 Climbing Denver Center
Fri 11:54:11 AM 37.2181 -106.0228 52° Northeast 172 198 14,900 -48 Descending Denver Center
Fri 11:55:13 AM 37.2547 -105.9678 50° Northeast 180 207 14,900  Level Denver Center
Fri 11:56:15 AM 37.2808 -105.9256 52° Northeast 180 207 14,900 -27 Level Denver Center
Fri 11:58:56 AM 37.3583 -105.7722 62° Northeast 192 221 14,800 -27 Descending Denver Center
Fri 11:59:58 AM 37.3736 -105.7089 73° East 190 219 14,800  Level Denver Center
Fri 12:01:00 PM 37.3878 -105.6483 74° East 187 215 14,800  Level Denver Center
Fri 12:02:03 PM 37.4011 -105.5911 74° East 179 206 14,800  Level Denver Center
Fri 12:03:05 PM 37.4147 -105.5278 75° East 166 191 14,800  Level Denver Center
Fri 12:04:07 PM 37.4267 -105.4744 74° East 163 188 14,800 -48 Level Denver Center
Fri 12:05:09 PM 37.4392 -105.4164 75° East 165 190 14,700  Descending Denver Center
Fri 12:06:11 PM 37.4042 -105.4108 173° South 186 214 14,800 48 Climbing Denver Center
Fri 12:07:13 PM 37.3981 -105.4686 262° West 174 200 14,800  Level Denver Center
Fri 12:08:15 PM 37.4039 -105.5225 278° West 162 186 14,800  Level Denver Center
Fri 12:09:17 PM 37.4025 -105.5792 268° West 145 167 14,800  Level Denver Center
Fri 12:10:19 PM 37.3936 -105.6233 256° West 136 157 14,800  Level Denver Center
Fri 12:11:21 PM 37.3692 -105.6053 150° Southeast 150 173 14,800  Level Denver Center
Fri 12:12:23 PM 37.3894 -105.5608 60° Northeast 147 169 14,800 -288 Level Denver Center
Fri 12:13:26 PM 37.4139 -105.5144 56° Northeast 150 173 14,200 -384 Descending Denver Center
Fri 12:14:28 PM 37.4339 -105.4550 67° East 172 198 14,000 -97 Descending Denver Center
Fri 12:15:30 PM 37.4486 -105.3825 76° East 177 204 14,000  Level Denver Center
Fri 12:16:32 PM 37.4614 -105.3217 75° East 177 204 14,000  Level Denver Center
Fri 12:17:34 PM 37.4803 -105.2633 68° East 177 204 14,000  Level Denver Center
Fri 12:18:36 PM 37.4939 -105.2036 74° East 177 204 14,000  Level Denver Center
Fri 12:19:38 PM 37.5014 -105.1408 81° East 178 205 14,000  Level Denver Center
Fri 12:20:40 PM 37.5169 -105.0669 75° East 178 205 14,000  Level Denver Center
Fri 12:21:42 PM 37.5306 -105.0075 74° East 178 205 14,000  Level Denver Center
Fri 12:22:44 PM 37.5436 -104.9472 75° East 178 205 14,000  Level Denver Center
Fri 12:23:47 PM 37.5575 -104.8867 74° East 178 205 14,000  Level Denver Center
Fri 12:24:49 PM 37.5708 -104.8264 74° East 178 205 14,000  Level Denver Center
Fri 12:25:51 PM 37.5839 -104.7653 75° East 178 205 14,000 48 Level Denver Center
Fri 12:26:53 PM 37.6003 -104.6917 74° East 179 206 14,100 48 Climbing Denver Center
Fri 12:27:55 PM 37.6128 -104.6306 76° East 179 206 14,100  Level Denver Center
Fri 12:28:57 PM 37.6450 -104.5908 44° Northeast 178 205 14,100  Level Denver Center
Fri 12:29:59 PM 37.6936 -104.5783 12° North 178 205 14,100  Level Denver Center
Fri 12:31:01 PM 37.7417 -104.5656 12° North 178 205 14,100  Level Denver Center
Fri 12:32:03 PM 37.7903 -104.5550 10° North 178 205 14,100  Level Denver Center
Fri 12:33:05 PM 37.8389 -104.5425 11° North 178 205 14,100  Level Denver Center
Fri 12:34:07 PM 37.8967 -104.5281 11° North 178 205 14,100  Level Denver Center
Fri 12:35:09 PM 37.9442 -104.5167 11° North 177 204 14,100 -240 Level Denver Center
Fri 12:36:12 PM 37.9931 -104.5050 11° North 177 204 13,600 -480 Descending Denver Center
Fri 12:37:14 PM 38.0450 -104.4917 11° North 181 208 13,100 -242 Descending Denver Center
Fri 12:38:16 PM 38.0961 -104.4786 11° North 184 212 13,100  Level Denver Center
Fri 12:39:18 PM 38.1433 -104.4664 12° North 183 211 13,100  Level Denver Center
Fri 12:40:20 PM 38.1994 -104.4525 11° North 176 203 13,100  Level Denver Center
Fri 12:41:22 PM 38.2467 -104.4403 11° North 176 203 13,100  Level Denver Center
Fri 12:42:24 PM 38.2931 -104.4297 10° North 175 201 13,100  Level Denver Center
Fri 12:43:26 PM 38.3394 -104.4425 348° North 174 200 13,100  Level Denver Center
Fri 12:44:28 PM 38.3856 -104.4556 347° North 173 199 13,100  Level Denver Center
Fri 12:45:30 PM 38.4314 -104.4717 345° North 173 199 13,100 -97 Level Denver Center
Fri 12:46:32 PM 38.4875 -104.4889 346° North 173 199 12,900 -48 Descending Denver Center
Fri 12:47:34 PM 38.5347 -104.5036 346° North 173 199 13,000 48 Climbing Denver Center
Fri 12:48:36 PM 38.5811 -104.5161 348° North 172 198 13,000  Level Denver Center
Fri 12:49:39 PM 38.6267 -104.5311 346° North 172 198 13,000  Level Denver Center
Fri 12:50:41 PM 38.6742 -104.5439 348° North 172 198 13,000  Level Denver Center
Fri 12:51:43 PM 38.7306 -104.5619 346° North 172 198 13,000  Level Denver Center
Fri 12:52:45 PM 38.7772 -104.5775 345° North 173 199 13,000  Level Denver Center
Fri 12:53:47 PM 38.8239 -104.5931 345° North 173 199 13,000  Level Denver Center
Fri 12:54:04 PM 38.8411 -104.5972 349° North 177 204 13,000 -97 Level Denver Center
Fri 12:54:49 PM 38.8758 -104.6103 344° North 173 199 12,900 -56 Descending Denver Center
Fri 12:55:51 PM 38.9217 -104.6244 346° North 171 197 12,900  Level Denver Center
Fri 12:56:53 PM 38.9689 -104.6417 344° North 174 200 12,900 -242 Level Denver Center
Fri 12:57:55 PM 39.0181 -104.6575 346° North 182 209 12,400 -624 Descending Denver Center
Fri 12:58:58 PM 39.0717 -104.6769 344° North 199 229 11,600 -810 Descending Denver Center
Fri 01:00:01 PM 39.1233 -104.6947 345° North 194 223 10,700 -823 Descending Denver Center
Fri 01:01:02 PM 39.1825 -104.7150 345° North 191 220 9,900 -387 Descending Denver Center
Fri 01:02:05 PM 39.2322 -104.7289 348° North 172 198 9,900 -336 Level Denver Center
Fri 01:03:07 PM 39.2789 -104.7431 347° North 171 197 9,200 -484 Descending Denver Center
Fri 01:04:09 PM 39.3311 -104.7581 347° North 177 204 8,900 -145 Descending Denver Center
Fri 01:05:11 PM 39.3722 -104.7689 348° North 155 178 8,900  Level Denver Center
Fri 01:06:13 PM 39.4094 -104.7483 23° Northeast 146 168 8,900  Level Denver Center
Fri 01:07:15 PM 39.4558 -104.7533 355° North 154 177 8,900  Level Denver Center
Fri 01:08:17 PM 39.4981 -104.7572 356° North 153 176 8,900 -97 Level Denver Center
Fri 01:09:19 PM 39.5422 -104.7603 357° North 152 175 8,700 -484 Descending Denver Center
Fri 01:10:21 PM 39.5872 -104.7647 356° North 157 181 7,900 -387 Descending Denver Center
Fri 01:11:23 PM 39.6244 -104.7706 353° North 123 142 7,900 -145 Level Denver Center
Fri 01:12:25 PM 39.6447 -104.8019 310° West 121 139 7,600 -629 Descending Denver Center
Fri 01:13:27 PM 39.6369 -104.8447 257° West 124 143 6,600 -624 Descending Denver Center
Fri 01:14:30 PM 39.6131 -104.8533 196° South 92 106 6,300 -384 Descending Denver Center
Fri 01:15:32 PM 39.5878 -104.8517 177° South 92 106 5,800 -484 Descending Denver Center
Fri 01:17:00 PM 39.5701 -104.8493 226° Southwest  Level Estimated
Fri 01:24:00 PM 39.5701 -104.8493 226° Southwest  Level Estimated
Fri 01:25:00 PM 39.5701 -104.8493 106° East  Level Estimated
Fri 01:26:00 PM 39.5701 -104.8493 226° Southwest  Level Estimated

Login

Don't have an account? Register now (free) for customized features, flight alerts, and more!